Airfield :
LOGIN :

Register | Disclaimer

   EN    FR    IT 

 










Legend :    VFR   Marginal VFR   IFR   Intensive IFR   Very Intensive IFR
Visi :
Ceiling :
>= 8 km
>= 3000ft
5 to 8 km
1000 to 3000 ft
1500m to 5 km
500 to 1000 ft
800 to 1500m
200 to 500 ft
< 800m
< 200 ft
Symbols :   Thunderstorms  Fog  Heavy snow  Heavy precipitations  Wind > 20 kt
SIGMETs :     Misc.  Thunderstorms  Icing  Turbulence  Mountain Waves  Volcanic Ashes







- Airport Elevation : 290 ft
- IATA code : OSI


LDOS - Osijek

CURRENT METAR :
  • 141830Z 18011KT CAVOK 07/04 Q1006

EXPIRED METARs :
  • 141800Z 17009KT CAVOK 07/04 Q1006
  • 141730Z 16008KT CAVOK 07/04 Q1007
  • 141700Z 16007KT CAVOK 07/04 Q1007
  • 141630Z 15007KT CAVOK 06/05 Q1007
  • 141600Z 12006KT CAVOK 06/05 Q1007

TAF TAF LDOS
Valid from the 14 at 18:00 until the 15 at 18:00 UTC


141725Z 1418/1518 13007KT 9999 SCT030 TX13/1512Z TN05/1501Z
PROB30
TEMPO 1418/1421 RA
BECMG 1421/1423 14012KT
BECMG 1509/1511 VRB02KT
TEMPO 1514/1518 4000 RA BKN008
No reported NOTAMs for that airfield.



MET'MAP, your aeronautical weather chart ! - Copyright ORBIFLY December 2007 - Disclaimer

ORBIFLY MET'MAP TEAM :

Programming & Development : Alexandra Zaïnal
Concept & Development : Baudouin d'Aumeries
Co-Development & Prog : Marc-Olivier Méhu
Technical & hardware support : Manuel Goepfert

Contact : metmap@orbifly.com




SOURCES & CREDITS :

   NOAA